createdAt,value
2022-08-28T00:00:25.802Z,94591.97
2022-08-28T00:02:53.344Z,94579.03
2022-08-28T00:05:23.086Z,94573.41
2022-08-28T00:07:50.652Z,94578.66
2022-08-28T00:10:20.393Z,94573.81
2022-08-28T00:12:50.669Z,94578.16
2022-08-28T00:15:23.965Z,94581.16
2022-08-28T00:17:50.942Z,94568.72
2022-08-28T00:20:20.662Z,94582.19
2022-08-28T00:22:48.859Z,94590.38
2022-08-28T00:25:20.081Z,94576.66
2022-08-28T00:27:52.925Z,94567.69
2022-08-28T00:30:22.438Z,94560.63
2022-08-28T00:32:49.528Z,94567.69
2022-08-28T00:35:17.864Z,94583.06
2022-08-28T00:37:46.470Z,94568.28
2022-08-28T00:40:18.530Z,94564.19
2022-08-28T00:42:56.029Z,94571.69
2022-08-28T00:45:24.612Z,94544.88
2022-08-28T00:47:51.663Z,94545.41
2022-08-28T00:50:22.234Z,94574.75
2022-08-28T00:52:53.265Z,94547.31
2022-08-28T00:55:24.142Z,94569.00
2022-08-28T00:57:59.145Z,94568.50
2022-08-28T01:00:35.862Z,94576.56
2022-08-28T01:03:05.711Z,94554.34
2022-08-28T01:05:35.050Z,94572.25
2022-08-28T01:08:04.484Z,94561.88
2022-08-28T01:10:34.930Z,94551.47
2022-08-28T01:13:02.869Z,94556.00
2022-08-28T01:15:36.016Z,94555.38
2022-08-28T01:18:08.431Z,94544.03
2022-08-28T01:20:45.548Z,94568.47
2022-08-28T01:23:40.955Z,94561.06
2022-08-28T01:26:11.783Z,94560.09
2022-08-28T01:28:39.773Z,94558.00
2022-08-28T01:31:10.449Z,94551.34
2022-08-28T01:33:42.600Z,94557.03
2022-08-28T01:36:12.121Z,94545.22
2022-08-28T01:38:41.651Z,94558.00
2022-08-28T01:41:08.931Z,94550.94
2022-08-28T01:43:36.246Z,94560.97
2022-08-28T01:46:05.946Z,94552.34
2022-08-28T01:48:36.304Z,94561.66
2022-08-28T01:51:04.429Z,94549.72
2022-08-28T01:53:32.634Z,94560.41
2022-08-28T01:56:02.353Z,94554.13
2022-08-28T01:58:34.926Z,94567.03
2022-08-28T02:01:16.021Z,94557.13
2022-08-28T02:03:43.344Z,94543.09
2022-08-28T02:06:11.418Z,94556.13
2022-08-28T02:08:38.780Z,94528.59
2022-08-28T02:11:07.456Z,94502.56
2022-08-28T02:13:36.744Z,94558.22
2022-08-28T02:16:06.310Z,94548.53
2022-08-28T02:18:33.457Z,94536.84
2022-08-28T02:21:00.335Z,94559.41
2022-08-28T02:23:27.552Z,94535.59
2022-08-28T02:25:54.379Z,94558.22
2022-08-28T02:28:21.388Z,94538.09
2022-08-28T02:30:48.630Z,94545.75
2022-08-28T02:33:16.222Z,94556.44
2022-08-28T02:35:43.222Z,94540.69
2022-08-28T02:38:10.740Z,94545.53
2022-08-28T02:40:38.787Z,94544.53
2022-08-28T02:43:05.637Z,94515.13
2022-08-28T02:45:32.869Z,94554.13
2022-08-28T02:48:01.614Z,94544.47
2022-08-28T02:50:30.099Z,94538.50
2022-08-28T02:52:57.337Z,94556.03
2022-08-28T02:55:25.252Z,94521.63
2022-08-28T02:57:52.922Z,94538.72
2022-08-28T03:00:24.940Z,94546.16
2022-08-28T03:02:52.980Z,94550.59
2022-08-28T03:05:25.455Z,94553.06
2022-08-28T03:07:53.607Z,94548.31
2022-08-28T03:10:20.859Z,94553.91
2022-08-28T03:12:48.267Z,94550.59
2022-08-28T03:15:15.069Z,94550.66
2022-08-28T03:17:41.880Z,94540.47
2022-08-28T03:20:10.623Z,94542.31
2022-08-28T03:22:56.419Z,94538.78
2022-08-28T03:25:24.712Z,94550.94
2022-08-28T03:27:52.168Z,94545.53
2022-08-28T03:30:20.615Z,94557.09
2022-08-28T03:32:47.617Z,94540.31
2022-08-28T03:35:14.740Z,94553.78
2022-08-28T03:37:41.634Z,94554.91
2022-08-28T03:40:09.603Z,94556.88
2022-08-28T03:42:36.396Z,94549.16
2022-08-28T03:45:05.349Z,94558.09
2022-08-28T03:47:32.240Z,94563.00
2022-08-28T03:49:59.197Z,94560.31
2022-08-28T03:52:26.212Z,94560.00
2022-08-28T03:54:53.037Z,94562.50
2022-08-28T03:57:22.043Z,94554.75
2022-08-28T03:59:51.542Z,94558.41
2022-08-28T04:02:20.671Z,94559.66
2022-08-28T04:04:49.417Z,94559.03
2022-08-28T04:07:18.102Z,94561.53
2022-08-28T04:09:45.776Z,94565.84
2022-08-28T04:12:13.151Z,94558.88
2022-08-28T04:14:40.107Z,94570.94
2022-08-28T04:17:07.737Z,94569.16
2022-08-28T04:19:34.782Z,94567.84
2022-08-28T04:22:01.851Z,94569.00
2022-08-28T04:24:28.747Z,94567.69
2022-08-28T04:26:56.156Z,94567.44
2022-08-28T04:29:23.212Z,94576.56
2022-08-28T04:31:50.708Z,94571.63
2022-08-28T04:34:18.218Z,94571.41
2022-08-28T04:36:46.442Z,94565.31
2022-08-28T04:39:13.259Z,94573.78
2022-08-28T04:41:40.264Z,94567.19
2022-08-28T04:44:08.093Z,94565.66
2022-08-28T04:46:35.614Z,94567.69
2022-08-28T04:49:04.498Z,94572.94
2022-08-28T04:51:31.736Z,94560.63
2022-08-28T04:53:59.077Z,94570.44
2022-08-28T04:56:26.656Z,94572.88
2022-08-28T04:58:53.885Z,94570.03
2022-08-28T05:01:24.505Z,94580.06
2022-08-28T05:03:57.641Z,94578.22
2022-08-28T05:06:29.229Z,94578.75
2022-08-28T05:09:00.825Z,94582.00
2022-08-28T05:11:33.475Z,94578.75
2022-08-28T05:14:09.628Z,94587.25
2022-08-28T05:16:47.701Z,94588.94
2022-08-28T05:19:16.563Z,94597.91
2022-08-28T05:21:43.557Z,94584.72
2022-08-28T05:24:11.509Z,94595.06
2022-08-28T05:26:38.767Z,94587.09
2022-08-28T05:29:07.893Z,94591.00
2022-08-28T05:31:35.179Z,94605.56
2022-08-28T05:34:02.348Z,94595.78
2022-08-28T05:36:33.198Z,94595.00
2022-08-28T05:39:01.894Z,94588.91
2022-08-28T05:41:31.363Z,94597.59
2022-08-28T05:44:01.254Z,94591.66
2022-08-28T05:46:28.822Z,94614.72
2022-08-28T05:48:56.298Z,94603.91
2022-08-28T05:51:26.496Z,94600.34
2022-08-28T05:53:54.374Z,94599.75
2022-08-28T05:56:25.232Z,94616.28
2022-08-28T05:58:52.720Z,94593.56
2022-08-28T06:01:28.622Z,94616.75
2022-08-28T06:04:00.323Z,94622.75
2022-08-28T06:06:30.121Z,94619.38
2022-08-28T06:09:10.366Z,94599.38
2022-08-28T06:11:44.009Z,94618.13
2022-08-28T06:14:15.723Z,94613.69
2022-08-28T06:16:45.582Z,94604.69
2022-08-28T06:19:13.862Z,94613.03
2022-08-28T06:21:41.661Z,94606.69
2022-08-28T06:24:10.199Z,94606.19
2022-08-28T06:26:37.154Z,94624.31
2022-08-28T06:29:09.574Z,94622.88
2022-08-28T06:31:36.682Z,94615.44
2022-08-28T06:34:04.353Z,94615.38
2022-08-28T06:36:33.873Z,94618.78
2022-08-28T06:39:02.891Z,94592.84
2022-08-28T06:41:32.143Z,94617.97
2022-08-28T06:43:59.019Z,94618.34
2022-08-28T06:46:26.684Z,94615.94
2022-08-28T06:48:53.651Z,94629.66
2022-08-28T06:51:23.195Z,94630.53
2022-08-28T06:53:52.366Z,94620.59
2022-08-28T06:56:25.689Z,94636.50
2022-08-28T06:58:56.702Z,94620.59
2022-08-28T07:01:30.103Z,94632.47
2022-08-28T07:04:00.372Z,94627.53
2022-08-28T07:06:30.458Z,94641.94
2022-08-28T07:08:57.425Z,94643.44
2022-08-28T07:11:27.337Z,94648.31
2022-08-28T07:13:55.367Z,94651.88
2022-08-28T07:16:26.519Z,94641.78
2022-08-28T07:18:53.727Z,94647.00
2022-08-28T07:21:20.875Z,94641.66
2022-08-28T07:23:48.400Z,94659.31
2022-08-28T07:26:20.505Z,94655.78
2022-08-28T07:28:47.397Z,94663.66
2022-08-28T07:31:17.446Z,94657.81
2022-08-28T07:33:44.421Z,94671.16
2022-08-28T07:36:15.768Z,94654.16
2022-08-28T07:38:46.725Z,94658.38
2022-08-28T07:41:21.154Z,94661.69
2022-08-28T07:44:06.367Z,94661.88
2022-08-28T07:46:33.821Z,94667.59
2022-08-28T07:49:01.449Z,94676.16
2022-08-28T07:51:29.132Z,94676.13
2022-08-28T07:53:59.992Z,94668.22
2022-08-28T07:56:30.028Z,94659.69
2022-08-28T07:58:58.326Z,94677.06
2022-08-28T08:01:26.984Z,94683.50
2022-08-28T08:03:55.927Z,94661.94
2022-08-28T08:06:34.249Z,94661.53
2022-08-28T08:09:02.357Z,94667.63
2022-08-28T08:11:32.339Z,94669.41
2022-08-28T08:14:05.604Z,94675.66
2022-08-28T08:16:41.097Z,94681.00
2022-08-28T08:19:10.442Z,94683.91
2022-08-28T08:21:38.101Z,94681.53
2022-08-28T08:24:06.087Z,94679.53
2022-08-28T08:26:33.658Z,94672.03
2022-08-28T08:29:01.045Z,94676.50
2022-08-28T08:31:33.127Z,94670.63
2022-08-28T08:34:03.693Z,94679.69
2022-08-28T08:36:32.899Z,94695.72
2022-08-28T08:39:00.688Z,94690.69
2022-08-28T08:41:49.125Z,94681.09
2022-08-28T08:44:21.851Z,94683.53
2022-08-28T08:47:13.786Z,94685.91
2022-08-28T08:49:53.241Z,94667.22
2022-08-28T08:52:45.110Z,94703.28
2022-08-28T08:55:35.586Z,94693.88
2022-08-28T08:58:07.348Z,94698.41
2022-08-28T09:00:40.150Z,94707.75
2022-08-28T09:03:13.469Z,94692.09
2022-08-28T09:05:50.574Z,94714.19
2022-08-28T09:08:39.799Z,94692.19
2022-08-28T09:11:31.763Z,94722.81
2022-08-28T09:14:09.767Z,94697.28
2022-08-28T09:16:40.818Z,94718.53
2022-08-28T09:19:12.454Z,94703.94
2022-08-28T09:21:41.739Z,94704.53
2022-08-28T09:24:28.523Z,94740.81
2022-08-28T09:27:21.469Z,94723.75
2022-08-28T09:29:59.628Z,94733.00
2022-08-28T09:32:46.835Z,94754.25
2022-08-28T09:35:33.404Z,94726.94
2022-08-28T09:38:19.956Z,94735.88
2022-08-28T09:41:06.008Z,94758.91
2022-08-28T09:43:34.729Z,94748.66
2022-08-28T09:46:19.961Z,94746.63
2022-08-28T09:48:52.335Z,94749.16
2022-08-28T09:51:22.132Z,94742.16
2022-08-28T09:53:51.858Z,94761.66
2022-08-28T09:56:35.245Z,94765.16
2022-08-28T09:59:12.533Z,94757.44
2022-08-28T10:01:45.134Z,94777.16
2022-08-28T10:04:24.598Z,94765.19
2022-08-28T10:07:17.829Z,94757.59
2022-08-28T10:10:17.866Z,94748.34
2022-08-28T10:12:59.547Z,94753.75
2022-08-28T10:15:51.386Z,94769.88
2022-08-28T10:18:28.084Z,94767.66
2022-08-28T10:21:01.254Z,94754.38
2022-08-28T10:23:46.092Z,94761.34
2022-08-28T10:26:20.222Z,94760.81
2022-08-28T10:29:06.499Z,94764.88
2022-08-28T10:31:33.459Z,94758.19
2022-08-28T10:34:03.329Z,94754.78
2022-08-28T10:36:34.637Z,94762.56
2022-08-28T10:39:27.306Z,94759.97
2022-08-28T10:42:03.261Z,94765.69
2022-08-28T10:44:53.138Z,94755.03
2022-08-28T10:47:22.099Z,94757.97
2022-08-28T10:49:53.479Z,94760.34
2022-08-28T10:52:45.191Z,94768.47
2022-08-28T10:55:38.034Z,94761.09
2022-08-28T10:58:23.818Z,94747.16
2022-08-28T11:01:01.353Z,94758.75
2022-08-28T11:03:34.697Z,94769.50
2022-08-28T11:06:18.757Z,94776.28
2022-08-28T11:08:53.342Z,94776.47
2022-08-28T11:11:48.711Z,94772.63
2022-08-28T11:14:47.545Z,94762.25
2022-08-28T11:17:30.598Z,94750.59
2022-08-28T11:20:15.668Z,94787.75
2022-08-28T11:22:54.642Z,94775.13
2022-08-28T11:25:45.399Z,94775.75
2022-08-28T11:28:25.780Z,94765.00
2022-08-28T11:30:58.733Z,94771.06
2022-08-28T11:33:34.424Z,94766.09
2022-08-28T11:36:01.986Z,94762.28
2022-08-28T11:39:03.357Z,94790.09
2022-08-28T11:41:36.525Z,94775.94
2022-08-28T11:44:09.322Z,94791.84
2022-08-28T11:46:44.228Z,94782.94
2022-08-28T11:49:26.449Z,94790.53
2022-08-28T11:52:15.127Z,94795.69
2022-08-28T11:55:52.815Z,94758.75
2022-08-28T11:58:31.601Z,94809.97
2022-08-28T12:01:21.213Z,94782.69
2022-08-28T12:04:03.838Z,94817.28
2022-08-28T12:06:49.823Z,94795.19
2022-08-28T12:09:25.758Z,94812.47
2022-08-28T12:11:56.314Z,94802.56
2022-08-28T12:14:25.902Z,94799.06
2022-08-28T12:16:58.752Z,94790.28
2022-08-28T12:20:00.177Z,94797.28
2022-08-28T12:22:52.985Z,94797.31
2022-08-28T12:25:25.248Z,94769.06
2022-08-28T12:27:53.936Z,94795.53
2022-08-28T12:30:38.150Z,94808.53
2022-08-28T12:33:16.729Z,94804.41
2022-08-28T12:35:44.015Z,94826.63
2022-08-28T12:38:20.393Z,94811.88
2022-08-28T12:40:53.376Z,94809.66
2022-08-28T12:43:48.609Z,94808.44
2022-08-28T12:46:26.185Z,94806.81
2022-08-28T12:49:03.111Z,94804.88
2022-08-28T12:51:36.780Z,94827.75
2022-08-28T12:54:07.358Z,94805.72
2022-08-28T12:56:37.472Z,94811.25
2022-08-28T12:59:34.675Z,94807.72
2022-08-28T13:02:08.192Z,94806.72
2022-08-28T13:04:39.432Z,94806.34
2022-08-28T13:07:11.058Z,94810.59
2022-08-28T13:09:45.063Z,94792.94
2022-08-28T13:12:54.693Z,94801.78
2022-08-28T13:15:43.872Z,94815.44
2022-08-28T13:18:11.269Z,94784.59
2022-08-28T13:20:39.601Z,94809.13
2022-08-28T13:23:06.763Z,94783.94
2022-08-28T13:25:36.815Z,94798.63
2022-08-28T13:28:15.512Z,94814.59
2022-08-28T13:30:42.346Z,94797.31
2022-08-28T13:33:24.395Z,94811.47
2022-08-28T13:35:52.574Z,94811.19
2022-08-28T13:38:22.017Z,94805.34
2022-08-28T13:40:59.353Z,94804.19
2022-08-28T13:43:29.739Z,94812.00
2022-08-28T13:45:56.664Z,94808.50
2022-08-28T13:48:27.846Z,94812.34
2022-08-28T13:51:10.507Z,94799.25
2022-08-28T13:53:38.657Z,94802.00
2022-08-28T13:56:06.482Z,94782.91
2022-08-28T13:58:33.429Z,94799.97
2022-08-28T14:01:01.029Z,94789.97
2022-08-28T14:03:38.380Z,94805.00
2022-08-28T14:06:14.124Z,94806.81
2022-08-28T14:08:42.286Z,94755.19
2022-08-28T14:11:12.539Z,94797.31
2022-08-28T14:13:47.161Z,94788.47
2022-08-28T14:16:24.644Z,94799.38
2022-08-28T14:18:52.830Z,94782.47
2022-08-28T14:21:21.006Z,94772.56
2022-08-28T14:23:47.759Z,94816.84
2022-08-28T14:26:14.566Z,94811.97
2022-08-28T14:28:42.413Z,94816.84
2022-08-28T14:31:14.203Z,94791.19
2022-08-28T14:33:41.788Z,94816.59
2022-08-28T14:36:18.328Z,94796.38
2022-08-28T14:38:45.163Z,94809.47
2022-08-28T14:41:12.508Z,94813.00
2022-08-28T14:43:39.327Z,94797.38
2022-08-28T14:46:10.986Z,94806.97
2022-08-28T14:48:38.694Z,94817.81
2022-08-28T14:51:06.073Z,94800.44
2022-08-28T14:53:32.843Z,94818.59
2022-08-28T14:55:59.678Z,94804.91
2022-08-28T14:58:26.851Z,94802.44
2022-08-28T15:00:53.894Z,94820.50
2022-08-28T15:03:21.767Z,94800.00
2022-08-28T15:06:00.354Z,94788.75
2022-08-28T15:08:27.628Z,94804.28
2022-08-28T15:10:54.926Z,94811.56
2022-08-28T15:13:21.880Z,94793.16
2022-08-28T15:15:49.878Z,94793.88
2022-08-28T15:18:16.883Z,94793.03
2022-08-28T15:20:46.607Z,94794.78
2022-08-28T15:23:14.999Z,94799.44
2022-08-28T15:25:42.407Z,94783.06
2022-08-28T15:28:10.075Z,94825.41
2022-08-28T15:30:37.239Z,94812.13
2022-08-28T15:33:04.920Z,94819.91
2022-08-28T15:35:33.766Z,94802.88
2022-08-28T15:38:00.679Z,94804.50
2022-08-28T15:40:46.257Z,94814.28
2022-08-28T15:43:13.509Z,94803.38
2022-08-28T15:45:40.994Z,94769.44
2022-08-28T15:48:09.248Z,94806.59
2022-08-28T15:50:36.570Z,94800.50
2022-08-28T15:53:04.474Z,94798.81
2022-08-28T15:55:34.117Z,94761.88
2022-08-28T15:58:08.862Z,94778.78
2022-08-28T16:00:41.618Z,94785.66
2022-08-28T16:03:08.587Z,94810.25
2022-08-28T16:05:40.546Z,94774.09
2022-08-28T16:08:09.385Z,94772.53
2022-08-28T16:10:36.741Z,94765.75
2022-08-28T16:13:06.559Z,94788.13
2022-08-28T16:15:34.586Z,94753.06
2022-08-28T16:18:01.634Z,94792.53
2022-08-28T16:20:29.003Z,94783.13
2022-08-28T16:22:55.799Z,94774.88
2022-08-28T16:25:22.555Z,94796.81
2022-08-28T16:27:49.338Z,94779.69
2022-08-28T16:30:17.643Z,94790.00
2022-08-28T16:32:46.696Z,94757.84
2022-08-28T16:35:15.101Z,94756.97
2022-08-28T16:37:42.573Z,94764.25
2022-08-28T16:40:10.654Z,94771.16
2022-08-28T16:42:37.621Z,94775.78
2022-08-28T16:45:05.351Z,94770.94
2022-08-28T16:47:33.915Z,94777.78
2022-08-28T16:50:02.283Z,94771.16
2022-08-28T16:52:29.129Z,94773.63
2022-08-28T16:54:55.988Z,94788.72
2022-08-28T16:57:23.769Z,94782.00
2022-08-28T16:59:53.069Z,94775.38
2022-08-28T17:02:26.515Z,94787.28
2022-08-28T17:04:55.692Z,94789.94
2022-08-28T17:07:22.926Z,94795.22
2022-08-28T17:09:49.790Z,94786.13
2022-08-28T17:12:16.811Z,94781.38
2022-08-28T17:14:43.981Z,94794.19
2022-08-28T17:17:11.498Z,94783.63
2022-08-28T17:19:38.515Z,94782.66
2022-08-28T17:22:27.094Z,94787.50
2022-08-28T17:24:55.097Z,94782.91
2022-08-28T17:27:22.883Z,94790.78
2022-08-28T17:29:50.582Z,94796.81
2022-08-28T17:32:17.846Z,94802.28
2022-08-28T17:34:44.999Z,94809.44
2022-08-28T17:37:12.093Z,94794.38
2022-08-28T17:39:39.062Z,94799.28
2022-08-28T17:42:06.262Z,94814.91
2022-08-28T17:44:35.349Z,94825.91
2022-08-28T17:47:02.671Z,94810.75
2022-08-28T17:49:29.745Z,94819.69
2022-08-28T17:51:56.657Z,94829.31
2022-08-28T17:54:24.462Z,94825.44
2022-08-28T17:56:55.227Z,94815.91
2022-08-28T17:59:23.647Z,94826.31
2022-08-28T18:01:50.813Z,94830.22
2022-08-28T18:04:24.200Z,94821.34
2022-08-28T18:06:54.741Z,94828.19
2022-08-28T18:09:23.479Z,94828.88
2022-08-28T18:11:51.347Z,94831.63
2022-08-28T18:14:18.525Z,94844.69
2022-08-28T18:16:45.327Z,94825.25
2022-08-28T18:19:13.680Z,94848.25
2022-08-28T18:21:41.183Z,94841.56
2022-08-28T18:24:08.632Z,94847.09
2022-08-28T18:26:35.396Z,94850.75
2022-08-28T18:29:02.360Z,94856.28
2022-08-28T18:31:29.439Z,94848.78
2022-08-28T18:33:57.014Z,94862.84
2022-08-28T18:36:24.363Z,94841.94
2022-08-28T18:38:52.430Z,94858.72
2022-08-28T18:41:20.514Z,94857.41
2022-08-28T18:43:48.331Z,94854.22
2022-08-28T18:46:15.800Z,94876.03
2022-08-28T18:48:43.417Z,94875.66
2022-08-28T18:51:12.435Z,94875.81
2022-08-28T18:53:42.376Z,94844.13
2022-08-28T18:56:12.462Z,94887.88
2022-08-28T18:58:40.995Z,94888.69
2022-08-28T19:01:09.845Z,94893.50
2022-08-28T19:03:37.143Z,94899.25
2022-08-28T19:06:06.418Z,94875.50
2022-08-28T19:08:36.713Z,94867.97
2022-08-28T19:11:07.990Z,94878.75
2022-08-28T19:13:35.779Z,94864.53
2022-08-28T19:16:03.329Z,94856.34
2022-08-28T19:18:30.441Z,94862.81
2022-08-28T19:21:05.034Z,94878.03
2022-08-28T19:23:33.108Z,94874.69
2022-08-28T19:26:00.323Z,94878.25
2022-08-28T19:28:27.271Z,94876.19
2022-08-28T19:30:54.599Z,94888.16
2022-08-28T19:33:21.605Z,94879.78
2022-08-28T19:35:48.958Z,94888.69
2022-08-28T19:38:16.894Z,94887.97
2022-08-28T19:40:44.545Z,94896.00
2022-08-28T19:43:16.496Z,94881.00
2022-08-28T19:45:45.320Z,94880.97
2022-08-28T19:48:12.649Z,94898.53
2022-08-28T19:50:39.723Z,94902.16
2022-08-28T19:53:07.214Z,94907.63
2022-08-28T19:55:34.630Z,94884.69
2022-08-28T19:58:05.288Z,94904.19
2022-08-28T20:00:33.249Z,94893.41
2022-08-28T20:03:00.863Z,94903.41
2022-08-28T20:05:28.164Z,94896.31
2022-08-28T20:07:55.442Z,94903.94
2022-08-28T20:10:22.416Z,94916.50
2022-08-28T20:12:49.553Z,94915.97
2022-08-28T20:15:18.241Z,94923.59
2022-08-28T20:17:49.726Z,94892.84
2022-08-28T20:20:19.608Z,94893.88
2022-08-28T20:22:46.698Z,94916.06
2022-08-28T20:25:14.787Z,94907.75
2022-08-28T20:27:41.756Z,94899.63
2022-08-28T20:30:10.436Z,94895.59
2022-08-28T20:32:40.125Z,94898.34
2022-08-28T20:35:09.691Z,94889.81
2022-08-28T20:37:44.650Z,94900.72
2022-08-28T20:40:18.318Z,94900.75
2022-08-28T20:42:46.509Z,94907.03
2022-08-28T20:45:15.231Z,94904.28
2022-08-28T20:47:42.578Z,94907.19
2022-08-28T20:50:09.648Z,94907.91
2022-08-28T20:52:37.087Z,94907.06
2022-08-28T20:55:05.834Z,94900.34
2022-08-28T20:57:32.815Z,94904.91
2022-08-28T21:00:03.483Z,94888.81
2022-08-28T21:02:32.406Z,94914.69
2022-08-28T21:04:59.285Z,94914.66
2022-08-28T21:07:27.083Z,94913.31
2022-08-28T21:10:04.944Z,94921.78
2022-08-28T21:12:33.624Z,94921.31
2022-08-28T21:15:00.449Z,94933.63
2022-08-28T21:17:30.145Z,94901.09
2022-08-28T21:20:04.262Z,94897.19
2022-08-28T21:22:32.926Z,94927.63
2022-08-28T21:25:00.749Z,94930.91
2022-08-28T21:27:28.477Z,94930.84
2022-08-28T21:29:57.695Z,94924.41
2022-08-28T21:32:25.295Z,94906.56
2022-08-28T21:34:53.275Z,94866.13
2022-08-28T21:37:20.225Z,94928.44
2022-08-28T21:39:47.090Z,94907.97
2022-08-28T21:42:13.959Z,94923.22
2022-08-28T21:44:41.013Z,94942.19
2022-08-28T21:47:15.746Z,94946.25
2022-08-28T21:49:42.815Z,94947.19
2022-08-28T21:52:09.582Z,94932.13
2022-08-28T21:54:36.971Z,94956.59
2022-08-28T21:57:04.081Z,94918.63
2022-08-28T21:59:37.864Z,94943.28
2022-08-28T22:02:05.388Z,94934.28
2022-08-28T22:04:32.562Z,94940.72
2022-08-28T22:06:59.555Z,94926.41
2022-08-28T22:09:26.469Z,94944.19
2022-08-28T22:11:54.028Z,94925.75
2022-08-28T22:14:21.124Z,94937.28
2022-08-28T22:16:48.092Z,94940.56
2022-08-28T22:19:14.948Z,94924.50
2022-08-28T22:22:00.687Z,94939.97
2022-08-28T22:24:27.744Z,94941.09
2022-08-28T22:26:57.731Z,94912.72
2022-08-28T22:29:25.069Z,94921.09
2022-08-28T22:31:53.098Z,94947.31
2022-08-28T22:34:20.380Z,94921.28
2022-08-28T22:36:47.217Z,94931.81
2022-08-28T22:39:14.191Z,94925.03
2022-08-28T22:41:41.715Z,94929.94
2022-08-28T22:44:09.075Z,94916.72
2022-08-28T22:46:36.089Z,94937.63
2022-08-28T22:49:03.314Z,94920.88
2022-08-28T22:51:30.093Z,94935.78
2022-08-28T22:53:57.143Z,94921.53
2022-08-28T22:56:23.984Z,94936.50
2022-08-28T22:58:51.105Z,94936.69
2022-08-28T23:01:22.663Z,94926.84
2022-08-28T23:03:50.544Z,94925.28
2022-08-28T23:06:17.830Z,94919.50
2022-08-28T23:08:44.585Z,94936.34
2022-08-28T23:11:11.702Z,94907.78
2022-08-28T23:13:39.331Z,94940.03
2022-08-28T23:16:06.284Z,94936.84
2022-08-28T23:19:03.976Z,94931.97
2022-08-28T23:21:23.851Z,94905.19
2022-08-28T23:23:53.818Z,94923.44
2022-08-28T23:26:21.594Z,94927.28
2022-08-28T23:28:48.406Z,94918.41
2022-08-28T23:31:15.339Z,94921.69
2022-08-28T23:33:42.584Z,94941.97
2022-08-28T23:36:10.211Z,94935.69
2022-08-28T23:38:40.664Z,94927.41
2022-08-28T23:41:11.259Z,94915.88
2022-08-28T23:43:38.685Z,94929.50
2022-08-28T23:46:06.121Z,94936.44
2022-08-28T23:48:33.099Z,94932.31
2022-08-28T23:51:00.101Z,94906.44
2022-08-28T23:53:27.630Z,94903.16
2022-08-28T23:55:55.921Z,94928.50
2022-08-28T23:58:22.748Z,94920.72
